createdAt,value
2018-07-23T00:00:42.603Z,19.26
2018-07-23T00:01:42.698Z,19.29
2018-07-23T00:02:42.643Z,19.23
2018-07-23T00:03:42.657Z,19.26
2018-07-23T00:04:42.666Z,19.29
2018-07-23T00:05:42.688Z,19.28
2018-07-23T00:06:42.704Z,19.29
2018-07-23T00:07:42.763Z,19.28
2018-07-23T00:08:42.746Z,19.28
2018-07-23T00:09:42.764Z,19.23
2018-07-23T00:10:42.775Z,19.31
2018-07-23T00:11:42.793Z,19.23
2018-07-23T00:12:42.814Z,19.26
2018-07-23T00:13:42.883Z,19.29
2018-07-23T00:14:42.842Z,19.28
2018-07-23T00:15:42.864Z,19.19
2018-07-23T00:16:42.871Z,19.14
2018-07-23T00:17:42.900Z,19.19
2018-07-23T00:18:42.907Z,19.28
2018-07-23T00:19:42.920Z,19.13
2018-07-23T00:20:42.941Z,19.25
2018-07-23T00:21:42.958Z,19.19
2018-07-23T00:22:42.965Z,19.22
2018-07-23T00:23:42.989Z,19.23
2018-07-23T00:24:42.999Z,19.22
2018-07-23T00:25:43.026Z,19.22
2018-07-23T00:26:43.035Z,19.18
2018-07-23T00:27:43.052Z,19.13
2018-07-23T00:28:43.073Z,19.18
2018-07-23T00:29:43.087Z,19.14
2018-07-23T00:30:43.095Z,19.21
2018-07-23T00:31:43.197Z,19.13
2018-07-23T00:32:43.131Z,19.13
2018-07-23T00:33:43.153Z,19.11
2018-07-23T00:34:43.170Z,19.14
2018-07-23T00:35:43.190Z,19.14
2018-07-23T00:36:43.202Z,19.23
2018-07-23T00:37:43.265Z,19.21
2018-07-23T00:38:43.239Z,19.14
2018-07-23T00:39:43.254Z,19.13
2018-07-23T00:40:43.261Z,19.08
2018-07-23T00:41:43.279Z,18.98
2018-07-23T00:42:43.301Z,19.06
2018-07-23T00:43:43.323Z,19.06
2018-07-23T00:44:43.337Z,19.06
2018-07-23T00:45:43.349Z,19.13
2018-07-23T00:46:43.366Z,19.13
2018-07-23T00:47:43.384Z,19.06
2018-07-23T00:48:43.401Z,19.08
2018-07-23T00:49:43.410Z,19.07
2018-07-23T00:50:43.433Z,18.95
2018-07-23T00:51:43.447Z,18.99
2018-07-23T00:52:43.459Z,19.04
2018-07-23T00:53:43.481Z,18.98
2018-07-23T00:54:43.501Z,18.98
2018-07-23T00:55:43.506Z,18.90
2018-07-23T00:56:43.525Z,19.00
2018-07-23T00:57:43.538Z,19.04
2018-07-23T00:58:43.561Z,19.04
2018-07-23T00:59:43.580Z,19.04
2018-07-23T01:00:43.594Z,18.99
2018-07-23T01:01:43.609Z,19.00
2018-07-23T01:02:43.628Z,18.94
2018-07-23T01:03:43.639Z,18.88
2018-07-23T01:04:43.655Z,18.85
2018-07-23T01:05:43.681Z,18.92
2018-07-23T01:06:43.689Z,18.90
2018-07-23T01:07:43.708Z,18.90
2018-07-23T01:08:43.807Z,18.91
2018-07-23T01:09:43.793Z,18.88
2018-07-23T01:10:43.750Z,18.84
2018-07-23T01:11:43.780Z,18.90
2018-07-23T01:12:43.789Z,18.94
2018-07-23T01:13:43.807Z,18.87
2018-07-23T01:14:43.825Z,18.91
2018-07-23T01:15:43.843Z,18.90
2018-07-23T01:16:43.861Z,18.90
2018-07-23T01:17:43.867Z,18.95
2018-07-23T01:18:43.887Z,18.91
2018-07-23T01:19:43.904Z,18.91
2018-07-23T01:20:43.920Z,18.94
2018-07-23T01:21:43.940Z,18.95
2018-07-23T01:22:43.954Z,18.90
2018-07-23T01:23:43.967Z,18.94
2018-07-23T01:24:43.990Z,18.91
2018-07-23T01:25:44.009Z,18.88
2018-07-23T01:26:44.018Z,18.91
2018-07-23T01:27:44.033Z,18.95
2018-07-23T01:28:44.054Z,18.92
2018-07-23T01:29:44.069Z,18.91
2018-07-23T01:30:44.084Z,18.90
2018-07-23T01:31:44.097Z,18.87
2018-07-23T01:32:44.125Z,18.91
2018-07-23T01:33:44.130Z,18.81
2018-07-23T01:34:44.150Z,18.80
2018-07-23T01:35:44.184Z,18.87
2018-07-23T01:36:44.192Z,18.84
2018-07-23T01:37:44.194Z,18.87
2018-07-23T01:38:44.215Z,18.87
2018-07-23T01:39:44.232Z,18.81
2018-07-23T01:40:44.250Z,18.82
2018-07-23T01:41:44.260Z,18.78
2018-07-23T01:42:44.284Z,18.75
2018-07-23T01:43:44.304Z,18.82
2018-07-23T01:44:44.396Z,18.78
2018-07-23T01:45:44.330Z,18.85
2018-07-23T01:46:44.346Z,18.81
2018-07-23T01:47:44.364Z,18.92
2018-07-23T01:48:44.378Z,18.84
2018-07-23T01:49:44.396Z,18.90
2018-07-23T01:50:44.493Z,18.81
2018-07-23T01:51:44.431Z,18.80
2018-07-23T01:52:44.449Z,18.76
2018-07-23T01:53:44.464Z,18.78
2018-07-23T01:54:44.478Z,18.75
2018-07-23T01:55:44.495Z,18.87
2018-07-23T01:56:44.548Z,18.75
2018-07-23T01:57:44.533Z,18.82
2018-07-23T01:58:44.544Z,18.85
2018-07-23T01:59:44.565Z,18.76
2018-07-23T02:00:44.581Z,18.78
2018-07-23T02:01:44.600Z,18.82
2018-07-23T02:02:44.608Z,18.78
2018-07-23T02:03:44.626Z,18.84
2018-07-23T02:04:44.648Z,18.75
2018-07-23T02:05:44.659Z,18.76
2018-07-23T02:06:44.675Z,18.81
2018-07-23T02:07:44.696Z,18.80
2018-07-23T02:08:44.702Z,18.73
2018-07-23T02:09:44.718Z,18.81
2018-07-23T02:10:44.740Z,18.78
2018-07-23T02:11:44.754Z,18.76
2018-07-23T02:12:44.774Z,18.81
2018-07-23T02:13:44.790Z,18.69
2018-07-23T02:14:44.814Z,18.72
2018-07-23T02:15:44.846Z,18.82
2018-07-23T02:16:44.844Z,18.85
2018-07-23T02:17:44.850Z,18.75
2018-07-23T02:18:44.872Z,18.76
2018-07-23T02:19:44.888Z,18.82
2018-07-23T02:20:44.903Z,18.70
2018-07-23T02:21:44.954Z,18.76
2018-07-23T02:22:44.945Z,18.67
2018-07-23T02:23:44.962Z,18.72
2018-07-23T02:24:44.968Z,18.72
2018-07-23T02:25:44.992Z,18.73
2018-07-23T02:26:45.009Z,18.81
2018-07-23T02:27:45.068Z,18.70
2018-07-23T02:28:45.041Z,18.67
2018-07-23T02:29:45.056Z,18.67
2018-07-23T02:30:45.073Z,18.73
2018-07-23T02:31:45.089Z,18.69
2018-07-23T02:32:45.106Z,18.76
2018-07-23T02:33:45.144Z,18.72
2018-07-23T02:34:45.141Z,18.78
2018-07-23T02:35:45.157Z,18.75
2018-07-23T02:36:45.167Z,18.70
2018-07-23T02:37:45.197Z,18.69
2018-07-23T02:38:45.218Z,18.69
2018-07-23T02:39:45.249Z,18.62
2018-07-23T02:40:45.238Z,18.69
2018-07-23T02:41:45.256Z,18.72
2018-07-23T02:42:45.272Z,18.72
2018-07-23T02:43:45.282Z,18.67
2018-07-23T02:44:45.301Z,18.69
2018-07-23T02:45:45.318Z,18.75
2018-07-23T02:46:45.326Z,18.72
2018-07-23T02:47:45.346Z,18.66
2018-07-23T02:48:45.371Z,18.62
2018-07-23T02:49:45.376Z,18.67
2018-07-23T02:50:45.417Z,18.70
2018-07-23T02:51:45.413Z,18.72
2018-07-23T02:52:45.421Z,18.72
2018-07-23T02:53:45.448Z,18.72
2018-07-23T02:54:45.463Z,18.73
2018-07-23T02:55:45.476Z,18.69
2018-07-23T02:56:45.493Z,18.69
2018-07-23T02:57:45.516Z,18.72
2018-07-23T02:58:45.524Z,18.70
2018-07-23T02:59:45.699Z,18.65
2018-07-23T03:00:45.564Z,18.76
2018-07-23T03:01:45.576Z,18.72
2018-07-23T03:02:45.586Z,18.75
2018-07-23T03:03:45.690Z,18.69
2018-07-23T03:04:45.627Z,18.80
2018-07-23T03:05:45.648Z,18.73
2018-07-23T03:06:45.661Z,18.78
2018-07-23T03:07:45.671Z,18.72
2018-07-23T03:08:45.697Z,18.72
2018-07-23T03:09:45.707Z,18.80
2018-07-23T03:10:45.733Z,18.84
2018-07-23T03:11:45.740Z,18.66
2018-07-23T03:12:45.757Z,18.70
2018-07-23T03:13:45.781Z,18.75
2018-07-23T03:14:45.788Z,18.72
2018-07-23T03:15:45.899Z,18.73
2018-07-23T03:16:45.826Z,18.78
2018-07-23T03:17:45.838Z,18.73
2018-07-23T03:18:45.860Z,18.69
2018-07-23T03:19:45.872Z,18.69
2018-07-23T03:20:45.891Z,18.67
2018-07-23T03:21:46.049Z,18.75
2018-07-23T03:22:45.927Z,18.78
2018-07-23T03:23:45.936Z,18.81
2018-07-23T03:24:45.953Z,18.81
2018-07-23T03:25:45.965Z,18.72
2018-07-23T03:26:45.977Z,18.81
2018-07-23T03:27:46.028Z,18.72
2018-07-23T03:28:46.018Z,18.69
2018-07-23T03:29:46.037Z,18.63
2018-07-23T03:30:46.094Z,18.70
2018-07-23T03:31:46.099Z,18.70
2018-07-23T03:32:46.090Z,18.72
2018-07-23T03:33:46.153Z,18.69
2018-07-23T03:34:46.157Z,18.75
2018-07-23T03:35:46.153Z,18.69
2018-07-23T03:36:46.151Z,18.75
2018-07-23T03:37:46.162Z,18.67
2018-07-23T03:38:46.182Z,18.69
2018-07-23T03:39:46.189Z,18.63
2018-07-23T03:40:46.209Z,18.67
2018-07-23T03:41:46.232Z,18.67
2018-07-23T03:42:46.247Z,18.73
2018-07-23T03:43:46.257Z,18.78
2018-07-23T03:44:46.277Z,18.65
2018-07-23T03:45:46.289Z,18.69
2018-07-23T03:46:46.315Z,18.66
2018-07-23T03:47:46.327Z,18.60
2018-07-23T03:48:46.344Z,18.65
2018-07-23T03:49:46.358Z,18.75
2018-07-23T03:50:46.380Z,18.70
2018-07-23T03:51:46.394Z,18.73
2018-07-23T03:52:46.407Z,18.69
2018-07-23T03:53:46.428Z,18.66
2018-07-23T03:54:46.442Z,18.67
2018-07-23T03:55:46.462Z,18.54
2018-07-23T03:56:46.476Z,18.66
2018-07-23T03:57:46.503Z,18.67
2018-07-23T03:58:46.508Z,18.57
2018-07-23T03:59:46.522Z,18.58
2018-07-23T04:00:46.544Z,18.73
2018-07-23T04:01:46.604Z,18.70
2018-07-23T04:02:46.568Z,18.69
2018-07-23T04:03:46.586Z,18.66
2018-07-23T04:04:46.658Z,18.69
2018-07-23T04:05:46.619Z,18.67
2018-07-23T04:06:46.630Z,18.72
2018-07-23T04:07:46.655Z,18.72
2018-07-23T04:08:46.668Z,18.69
2018-07-23T04:09:46.688Z,18.70
2018-07-23T04:10:46.837Z,18.70
2018-07-23T04:11:46.722Z,18.70
2018-07-23T04:12:46.731Z,18.75
2018-07-23T04:13:46.752Z,18.69
2018-07-23T04:14:46.771Z,18.62
2018-07-23T04:15:46.787Z,18.67
2018-07-23T04:16:46.829Z,18.66
2018-07-23T04:17:46.809Z,18.67
2018-07-23T04:18:46.835Z,18.70
2018-07-23T04:19:46.851Z,18.69
2018-07-23T04:20:46.870Z,18.66
2018-07-23T04:21:46.887Z,18.70
2018-07-23T04:22:46.932Z,18.66
2018-07-23T04:23:46.920Z,18.70
2018-07-23T04:24:46.928Z,18.70
2018-07-23T04:25:46.949Z,18.66
2018-07-23T04:26:46.967Z,18.72
2018-07-23T04:27:46.983Z,18.75
2018-07-23T04:28:47.004Z,18.70
2018-07-23T04:29:47.014Z,18.73
2018-07-23T04:30:47.035Z,18.67
2018-07-23T04:31:47.052Z,18.84
2018-07-23T04:32:47.063Z,18.72
2018-07-23T04:33:47.083Z,18.67
2018-07-23T04:34:47.093Z,18.75
2018-07-23T04:35:47.108Z,18.70
2018-07-23T04:36:47.135Z,18.70
2018-07-23T04:37:47.175Z,18.66
2018-07-23T04:38:47.157Z,18.67
2018-07-23T04:39:47.229Z,18.70
2018-07-23T04:40:47.193Z,18.60
2018-07-23T04:41:47.219Z,18.63
2018-07-23T04:42:47.231Z,18.72
2018-07-23T04:43:47.247Z,18.69
2018-07-23T04:44:47.263Z,18.63
2018-07-23T04:45:47.273Z,18.72
2018-07-23T04:46:47.291Z,18.60
2018-07-23T04:47:47.301Z,18.66
2018-07-23T04:48:47.321Z,18.67
2018-07-23T04:49:47.341Z,18.75
2018-07-23T04:50:47.355Z,18.69
2018-07-23T04:51:47.368Z,18.70
2018-07-23T04:52:47.385Z,18.65
2018-07-23T04:53:47.407Z,18.72
2018-07-23T04:54:47.419Z,18.72
2018-07-23T04:55:47.437Z,18.76
2018-07-23T04:56:47.528Z,18.70
2018-07-23T04:57:47.474Z,18.65
2018-07-23T04:58:47.521Z,18.67
2018-07-23T04:59:47.507Z,18.72
2018-07-23T05:00:47.523Z,18.65
2018-07-23T05:01:47.538Z,18.72
2018-07-23T05:02:47.558Z,18.73
2018-07-23T05:03:47.568Z,18.75
2018-07-23T05:04:47.616Z,18.70
2018-07-23T05:05:47.599Z,18.81
2018-07-23T05:06:47.618Z,18.69
2018-07-23T05:07:47.631Z,18.65
2018-07-23T05:08:47.709Z,18.81
2018-07-23T05:09:47.664Z,18.81
2018-07-23T05:10:47.687Z,18.72
2018-07-23T05:11:47.702Z,18.73
2018-07-23T05:12:47.722Z,18.76
2018-07-23T05:13:47.735Z,18.72
2018-07-23T05:14:47.755Z,18.70
2018-07-23T05:15:47.771Z,18.73
2018-07-23T05:16:47.789Z,18.80
2018-07-23T05:17:47.796Z,18.69
2018-07-23T05:18:47.818Z,18.73
2018-07-23T05:19:47.832Z,18.73
2018-07-23T05:20:47.853Z,18.73
2018-07-23T05:21:47.867Z,18.75
2018-07-23T05:22:47.872Z,18.76
2018-07-23T05:23:47.909Z,18.82
2018-07-23T05:24:47.908Z,18.73
2018-07-23T05:25:47.934Z,18.84
2018-07-23T05:26:47.945Z,18.75
2018-07-23T05:27:47.956Z,18.75
2018-07-23T05:28:47.975Z,18.80
2018-07-23T05:29:47.994Z,18.78
2018-07-23T05:30:48.009Z,18.84
2018-07-23T05:31:48.071Z,18.75
2018-07-23T05:32:48.044Z,18.78
2018-07-23T05:33:48.058Z,18.75
2018-07-23T05:34:48.164Z,18.81
2018-07-23T05:35:48.088Z,18.80
2018-07-23T05:36:48.112Z,18.85
2018-07-23T05:37:48.128Z,18.80
2018-07-23T05:38:48.142Z,18.80
2018-07-23T05:39:48.158Z,18.76
2018-07-23T05:40:48.285Z,18.70
2018-07-23T05:41:48.188Z,18.70
2018-07-23T05:42:48.210Z,18.78
2018-07-23T05:43:48.227Z,18.76
2018-07-23T05:44:48.246Z,18.78
2018-07-23T05:45:48.265Z,18.85
2018-07-23T05:46:48.304Z,18.90
2018-07-23T05:47:48.287Z,18.91
2018-07-23T05:48:48.311Z,18.91
2018-07-23T05:49:48.324Z,18.91
2018-07-23T05:50:48.339Z,18.91
2018-07-23T05:51:48.357Z,18.92
2018-07-23T05:52:48.371Z,18.85
2018-07-23T05:53:48.394Z,18.90
2018-07-23T05:54:48.399Z,18.92
2018-07-23T05:55:48.425Z,18.91
2018-07-23T05:56:48.441Z,18.94
2018-07-23T05:57:48.473Z,18.87
2018-07-23T05:58:48.479Z,18.99
2018-07-23T05:59:48.505Z,18.88
2018-07-23T06:00:48.503Z,18.90
2018-07-23T06:01:48.512Z,18.90
2018-07-23T06:02:48.534Z,18.88
2018-07-23T06:03:48.552Z,18.94
2018-07-23T06:04:48.569Z,18.94
2018-07-23T06:05:48.590Z,18.95
2018-07-23T06:06:48.727Z,19.00
2018-07-23T06:07:48.617Z,18.98
2018-07-23T06:08:48.642Z,19.11
2018-07-23T06:09:48.653Z,19.10
2018-07-23T06:10:48.665Z,19.10
2018-07-23T06:11:48.689Z,19.11
2018-07-23T06:12:48.701Z,19.22
2018-07-23T06:13:48.725Z,19.22
2018-07-23T06:14:48.735Z,19.21
2018-07-23T06:15:48.758Z,19.23
2018-07-23T06:16:48.797Z,19.22
2018-07-23T06:17:48.787Z,19.18
2018-07-23T06:18:48.817Z,19.19
2018-07-23T06:19:48.816Z,19.23
2018-07-23T06:20:48.833Z,19.28
2018-07-23T06:21:48.856Z,19.29
2018-07-23T06:22:48.869Z,19.31
2018-07-23T06:23:48.883Z,19.29
2018-07-23T06:24:48.909Z,19.39
2018-07-23T06:25:48.962Z,19.41
2018-07-23T06:26:48.953Z,19.36
2018-07-23T06:27:48.956Z,19.39
2018-07-23T06:28:48.967Z,19.40
2018-07-23T06:29:48.990Z,19.47
2018-07-23T06:30:49.006Z,19.46
2018-07-23T06:31:49.022Z,19.50
2018-07-23T06:32:49.037Z,19.55
2018-07-23T06:33:49.094Z,19.55
2018-07-23T06:34:49.071Z,19.58
2018-07-23T06:35:49.093Z,19.55
2018-07-23T06:36:49.116Z,19.63
2018-07-23T06:37:49.122Z,19.51
2018-07-23T06:38:49.144Z,19.73
2018-07-23T06:39:49.157Z,19.81
2018-07-23T06:40:49.177Z,19.77
2018-07-23T06:41:49.186Z,19.81
2018-07-23T06:42:49.205Z,19.81
2018-07-23T06:43:49.223Z,19.94
2018-07-23T06:44:49.235Z,19.91
2018-07-23T06:45:49.254Z,19.99
2018-07-23T06:46:49.273Z,20.10
2018-07-23T06:47:49.290Z,20.06
2018-07-23T06:48:49.299Z,20.14
2018-07-23T06:49:49.318Z,20.38
2018-07-23T06:50:49.335Z,20.38
2018-07-23T06:51:49.407Z,20.32
2018-07-23T06:52:49.365Z,20.33
2018-07-23T06:53:49.397Z,20.38
2018-07-23T06:54:49.403Z,20.58
2018-07-23T06:55:49.425Z,20.64
2018-07-23T06:56:49.443Z,20.67
2018-07-23T06:57:49.517Z,20.82
2018-07-23T06:58:49.476Z,20.80
2018-07-23T06:59:49.487Z,20.95
2018-07-23T07:00:49.512Z,21.13
2018-07-23T07:01:49.526Z,21.22
2018-07-23T07:02:49.549Z,21.16
2018-07-23T07:03:49.564Z,21.06
2018-07-23T07:04:49.588Z,21.13
2018-07-23T07:05:49.590Z,21.40
2018-07-23T07:06:49.610Z,21.58
2018-07-23T07:07:49.633Z,21.65
2018-07-23T07:08:49.652Z,21.90
2018-07-23T07:09:49.663Z,22.03
2018-07-23T07:10:49.697Z,22.05
2018-07-23T07:11:49.708Z,22.06
2018-07-23T07:12:49.722Z,22.25
2018-07-23T07:13:49.735Z,22.15
2018-07-23T07:14:49.750Z,22.17
2018-07-23T07:15:49.818Z,22.25
2018-07-23T07:16:49.872Z,22.14
2018-07-23T07:17:49.798Z,22.03
2018-07-23T07:18:49.824Z,22.03
2018-07-23T07:19:49.845Z,22.18
2018-07-23T07:20:49.854Z,22.21
2018-07-23T07:21:49.876Z,22.22
2018-07-23T07:22:49.904Z,22.31
2018-07-23T07:23:49.912Z,22.37
2018-07-23T07:24:49.922Z,22.49
2018-07-23T07:25:49.947Z,22.67
2018-07-23T07:26:49.962Z,22.86
2018-07-23T07:27:50.038Z,22.90
2018-07-23T07:28:50.002Z,22.65
2018-07-23T07:29:50.021Z,22.52
2018-07-23T07:30:50.036Z,22.55
2018-07-23T07:31:50.061Z,22.62
2018-07-23T07:32:50.074Z,22.64
2018-07-23T07:33:50.097Z,22.77
2018-07-23T07:34:50.170Z,22.68
2018-07-23T07:35:50.134Z,22.72
2018-07-23T07:36:50.142Z,22.90
2018-07-23T07:37:50.230Z,23.05
2018-07-23T07:38:50.189Z,22.88
2018-07-23T07:39:50.205Z,22.94
2018-07-23T07:40:50.227Z,22.79
2018-07-23T07:41:50.241Z,22.88
2018-07-23T07:42:50.262Z,22.97
2018-07-23T07:43:50.284Z,23.00
2018-07-23T07:44:50.300Z,23.00
2018-07-23T07:45:50.513Z,22.92
2018-07-23T07:46:50.332Z,22.85
2018-07-23T07:47:50.356Z,23.00
2018-07-23T07:48:50.372Z,23.23
2018-07-23T07:49:50.388Z,23.35
2018-07-23T07:50:50.406Z,23.35
2018-07-23T07:51:50.420Z,23.01
2018-07-23T07:52:50.449Z,22.68
2018-07-23T07:53:50.489Z,22.55
2018-07-23T07:54:50.485Z,22.45
2018-07-23T07:55:50.498Z,22.45
2018-07-23T07:56:50.526Z,22.39
2018-07-23T07:57:50.581Z,22.72
2018-07-23T07:58:50.556Z,22.79
2018-07-23T07:59:50.601Z,22.85
2018-07-23T08:00:50.587Z,22.91
2018-07-23T08:01:50.611Z,23.00
2018-07-23T08:02:50.634Z,23.16
2018-07-23T08:03:50.701Z,23.05
2018-07-23T08:04:50.663Z,22.97
2018-07-23T08:05:50.743Z,23.10
2018-07-23T08:06:50.703Z,23.04
2018-07-23T08:07:50.720Z,23.15
2018-07-23T08:08:50.741Z,23.28
2018-07-23T08:09:50.763Z,23.39
2018-07-23T08:10:50.776Z,23.61
2018-07-23T08:11:50.820Z,23.98
2018-07-23T08:12:50.821Z,24.18
2018-07-23T08:13:50.827Z,24.60
2018-07-23T08:14:50.856Z,24.61
2018-07-23T08:15:50.958Z,24.53
2018-07-23T08:16:50.893Z,24.52
2018-07-23T08:17:50.943Z,24.58
2018-07-23T08:18:50.929Z,24.27
2018-07-23T08:19:50.951Z,23.88
2018-07-23T08:20:50.973Z,23.61
2018-07-23T08:21:50.985Z,23.47
2018-07-23T08:22:51.006Z,23.39
2018-07-23T08:23:51.019Z,23.07
2018-07-23T08:24:51.129Z,22.95
2018-07-23T08:25:51.067Z,22.73
2018-07-23T08:26:51.086Z,22.62
2018-07-23T08:27:51.119Z,22.51
2018-07-23T08:28:51.115Z,22.47
2018-07-23T08:29:51.141Z,22.57
2018-07-23T08:30:51.379Z,23.17
2018-07-23T08:31:51.301Z,23.84
2018-07-23T08:32:51.190Z,24.43
2018-07-23T08:33:51.209Z,25.06
2018-07-23T08:34:51.232Z,25.55
2018-07-23T08:35:51.250Z,26.17
2018-07-23T08:36:51.267Z,26.73
2018-07-23T08:37:51.283Z,27.12
2018-07-23T08:38:51.309Z,27.18
2018-07-23T08:39:51.325Z,26.77
2018-07-23T08:40:51.356Z,26.33
2018-07-23T08:41:51.363Z,26.13
2018-07-23T08:42:51.389Z,25.82
2018-07-23T08:43:51.398Z,25.77
2018-07-23T08:44:51.446Z,25.75
2018-07-23T08:45:51.443Z,25.65
2018-07-23T08:46:51.465Z,24.85
2018-07-23T08:47:51.485Z,24.15
2018-07-23T08:48:51.497Z,23.94
2018-07-23T08:49:51.518Z,24.20
2018-07-23T08:50:51.543Z,24.21
2018-07-23T08:51:51.565Z,24.39
2018-07-23T08:52:51.583Z,24.37
2018-07-23T08:53:51.609Z,24.43
2018-07-23T08:54:51.625Z,24.50
2018-07-23T08:55:51.640Z,24.58
2018-07-23T08:56:51.664Z,24.83
2018-07-23T08:57:51.682Z,25.14
2018-07-23T08:58:51.695Z,25.83
2018-07-23T08:59:51.726Z,26.48
2018-07-23T09:00:51.743Z,27.19
2018-07-23T09:01:51.763Z,26.85
2018-07-23T09:02:51.785Z,26.69
2018-07-23T09:03:51.799Z,26.77
2018-07-23T09:04:51.829Z,26.84
2018-07-23T09:05:51.839Z,26.45
2018-07-23T09:06:51.942Z,26.15
2018-07-23T09:07:51.933Z,25.64
2018-07-23T09:08:51.938Z,25.52
2018-07-23T09:09:51.926Z,25.90
2018-07-23T09:10:51.939Z,26.45
2018-07-23T09:11:51.965Z,26.18
2018-07-23T09:12:52.040Z,26.10
2018-07-23T09:13:52.006Z,25.72
2018-07-23T09:14:52.026Z,25.69
2018-07-23T09:15:52.043Z,25.80
2018-07-23T09:16:52.068Z,25.47
2018-07-23T09:17:52.083Z,25.36
2018-07-23T09:18:52.179Z,25.73
2018-07-23T09:19:52.131Z,26.13
2018-07-23T09:20:52.143Z,26.51
2018-07-23T09:21:52.159Z,26.89
2018-07-23T09:22:52.193Z,27.54
2018-07-23T09:23:52.250Z,27.93
2018-07-23T09:24:52.229Z,27.28
2018-07-23T09:25:52.257Z,27.60
2018-07-23T09:26:52.269Z,27.03
2018-07-23T09:27:52.291Z,26.73
2018-07-23T09:28:52.309Z,26.87
2018-07-23T09:29:52.331Z,26.77
2018-07-23T09:30:52.358Z,26.92
2018-07-23T09:31:52.374Z,26.91
2018-07-23T09:32:52.386Z,27.46
2018-07-23T09:33:52.419Z,28.18
2018-07-23T09:34:52.434Z,28.25
2018-07-23T09:35:52.466Z,28.12
2018-07-23T09:36:52.475Z,27.66
2018-07-23T09:37:52.563Z,26.80
2018-07-23T09:38:52.520Z,26.43
2018-07-23T09:39:52.542Z,26.35
2018-07-23T09:40:52.602Z,25.82
2018-07-23T09:41:52.577Z,25.97
2018-07-23T09:42:52.614Z,26.10
2018-07-23T09:43:52.708Z,26.15
2018-07-23T09:44:52.647Z,26.28
2018-07-23T09:45:52.659Z,26.13
2018-07-23T09:46:52.689Z,26.28
2018-07-23T09:47:52.710Z,26.66
2018-07-23T09:48:52.728Z,26.72
2018-07-23T09:49:52.798Z,26.81
2018-07-23T09:50:52.780Z,27.37
2018-07-23T09:51:52.789Z,28.14
2018-07-23T09:52:52.813Z,28.73
2018-07-23T09:53:52.827Z,29.15
2018-07-23T09:54:52.851Z,29.42
2018-07-23T09:55:52.880Z,29.26
2018-07-23T09:56:52.906Z,29.89
2018-07-23T09:57:52.920Z,29.85
2018-07-23T09:58:52.946Z,30.15
2018-07-23T09:59:52.965Z,30.01
2018-07-23T10:00:52.979Z,29.83
2018-07-23T10:01:53.056Z,30.01
2018-07-23T10:02:53.070Z,29.67
2018-07-23T10:03:53.050Z,30.15
2018-07-23T10:04:53.072Z,29.98
2018-07-23T10:05:53.098Z,29.97
2018-07-23T10:06:53.114Z,30.49
2018-07-23T10:07:53.133Z,31.02
2018-07-23T10:08:53.157Z,30.46
2018-07-23T10:09:53.182Z,29.33
2018-07-23T10:10:53.210Z,29.06
2018-07-23T10:11:53.223Z,28.36
2018-07-23T10:12:53.249Z,27.57
2018-07-23T10:13:53.310Z,26.87
2018-07-23T10:14:53.345Z,27.21
2018-07-23T10:15:53.315Z,27.32
2018-07-23T10:16:53.342Z,26.60
2018-07-23T10:17:53.359Z,26.39
2018-07-23T10:18:53.383Z,26.26
2018-07-23T10:19:53.403Z,26.44
2018-07-23T10:20:53.431Z,27.19
2018-07-23T10:21:53.447Z,27.41
2018-07-23T10:22:53.467Z,27.41
2018-07-23T10:23:53.494Z,27.77
2018-07-23T10:24:53.507Z,27.75
2018-07-23T10:25:53.533Z,27.77
2018-07-23T10:26:53.575Z,27.90
2018-07-23T10:27:53.574Z,28.19
2018-07-23T10:28:53.629Z,28.70
2018-07-23T10:29:53.618Z,28.78
2018-07-23T10:30:53.642Z,28.92
2018-07-23T10:31:53.869Z,29.41
2018-07-23T10:32:53.761Z,29.33
2018-07-23T10:33:53.708Z,29.04
2018-07-23T10:34:53.737Z,28.66
2018-07-23T10:35:53.749Z,27.97
2018-07-23T10:36:53.774Z,27.44
2018-07-23T10:37:53.865Z,28.09
2018-07-23T10:38:53.826Z,28.31
2018-07-23T10:39:53.841Z,29.09
2018-07-23T10:40:53.864Z,29.71
2018-07-23T10:41:53.889Z,30.00
2018-07-23T10:42:53.909Z,30.22
2018-07-23T10:43:53.930Z,30.54
2018-07-23T10:44:53.958Z,30.95
2018-07-23T10:45:53.973Z,31.38
2018-07-23T10:46:54.001Z,31.75
2018-07-23T10:47:54.018Z,31.78
2018-07-23T10:48:54.037Z,32.03
2018-07-23T10:49:54.070Z,32.03
2018-07-23T10:50:54.162Z,32.03
2018-07-23T10:51:54.179Z,31.68
2018-07-23T10:52:54.141Z,31.72
2018-07-23T10:53:54.154Z,31.72
2018-07-23T10:54:54.179Z,31.91
2018-07-23T10:55:54.255Z,31.78
2018-07-23T10:56:54.228Z,31.89
2018-07-23T10:57:54.272Z,31.26
2018-07-23T10:58:54.277Z,30.72
2018-07-23T10:59:54.291Z,30.23
2018-07-23T11:00:54.315Z,30.05
2018-07-23T11:01:54.391Z,30.51
2018-07-23T11:02:54.365Z,30.73
2018-07-23T11:03:54.413Z,30.69
2018-07-23T11:04:54.416Z,29.94
2018-07-23T11:05:54.436Z,30.05
2018-07-23T11:06:54.469Z,30.34
2018-07-23T11:07:54.550Z,30.15
2018-07-23T11:08:54.509Z,30.24
2018-07-23T11:09:54.524Z,29.97
2018-07-23T11:10:54.553Z,29.73
2018-07-23T11:11:54.580Z,29.39
2018-07-23T11:12:54.606Z,29.73
2018-07-23T11:13:54.686Z,30.15
2018-07-23T11:14:54.655Z,30.61
2018-07-23T11:15:54.674Z,30.91
2018-07-23T11:16:54.703Z,30.95
2018-07-23T11:17:54.718Z,30.73
2018-07-23T11:18:54.739Z,29.39
2018-07-23T11:19:54.768Z,29.41
2018-07-23T11:20:54.794Z,29.61
2018-07-23T11:21:54.809Z,30.22
2018-07-23T11:22:54.842Z,30.35
2018-07-23T11:23:54.891Z,29.71
2018-07-23T11:24:54.930Z,29.28
2018-07-23T11:25:54.908Z,29.27
2018-07-23T11:26:54.927Z,28.73
2018-07-23T11:27:54.960Z,28.73
2018-07-23T11:28:54.976Z,28.88
2018-07-23T11:29:55.002Z,28.89
2018-07-23T11:30:55.017Z,28.02
2018-07-23T11:31:55.127Z,27.94
2018-07-23T11:32:55.066Z,28.00
2018-07-23T11:33:55.085Z,28.71
2018-07-23T11:34:55.165Z,29.39
2018-07-23T11:35:55.128Z,29.26
2018-07-23T11:36:55.155Z,29.31
2018-07-23T11:37:55.184Z,29.58
2018-07-23T11:38:55.198Z,29.80
2018-07-23T11:39:55.216Z,30.02
2018-07-23T11:40:55.325Z,30.39
2018-07-23T11:41:55.265Z,30.27
2018-07-23T11:42:55.298Z,30.70
2018-07-23T11:43:55.316Z,30.61
2018-07-23T11:44:55.332Z,29.65
2018-07-23T11:45:55.356Z,30.02
2018-07-23T11:46:55.376Z,30.43
2018-07-23T11:47:55.411Z,30.55
2018-07-23T11:48:55.427Z,30.45
2018-07-23T11:49:55.455Z,30.60
2018-07-23T11:50:55.472Z,29.28
2018-07-23T11:51:55.500Z,28.02
2018-07-23T11:52:55.524Z,26.77
2018-07-23T11:53:55.544Z,26.18
2018-07-23T11:54:55.564Z,26.50
2018-07-23T11:55:55.595Z,26.72
2018-07-23T11:56:55.642Z,26.62
2018-07-23T11:57:55.639Z,26.18
2018-07-23T11:58:55.654Z,25.43
2018-07-23T11:59:55.676Z,25.72
2018-07-23T12:00:55.704Z,26.01
2018-07-23T12:01:55.724Z,26.17
2018-07-23T12:02:55.745Z,25.98
2018-07-23T12:03:55.771Z,25.54
2018-07-23T12:04:55.782Z,26.07
2018-07-23T12:05:55.809Z,26.47
2018-07-23T12:06:55.836Z,26.48
2018-07-23T12:07:55.859Z,26.87
2018-07-23T12:08:55.878Z,26.06
2018-07-23T12:09:55.894Z,26.20
2018-07-23T12:10:55.919Z,26.37
2018-07-23T12:11:56.224Z,26.85
2018-07-23T12:12:56.168Z,25.91
2018-07-23T12:13:55.977Z,25.76
2018-07-23T12:14:55.999Z,25.97
2018-07-23T12:15:56.021Z,26.60
2018-07-23T12:16:56.041Z,26.88
2018-07-23T12:17:56.063Z,26.75
2018-07-23T12:18:56.137Z,26.17
2018-07-23T12:19:56.101Z,26.17
2018-07-23T12:20:56.128Z,26.66
2018-07-23T12:21:56.151Z,26.62
2018-07-23T12:22:56.169Z,26.06
2018-07-23T12:23:56.230Z,26.12
2018-07-23T12:24:56.214Z,26.48
2018-07-23T12:25:56.238Z,26.44
2018-07-23T12:26:56.254Z,26.62
2018-07-23T12:27:56.276Z,26.13
2018-07-23T12:28:56.296Z,26.18
2018-07-23T12:29:56.340Z,26.02
2018-07-23T12:30:56.341Z,26.26
2018-07-23T12:31:56.363Z,26.48
2018-07-23T12:32:56.379Z,25.94
2018-07-23T12:33:56.399Z,26.37
2018-07-23T12:34:56.421Z,26.45
2018-07-23T12:35:56.439Z,26.57
2018-07-23T12:36:56.461Z,27.06
2018-07-23T12:37:56.480Z,27.24
2018-07-23T12:38:56.503Z,28.02
2018-07-23T12:39:56.619Z,28.55
2018-07-23T12:40:56.547Z,27.94
2018-07-23T12:41:56.567Z,26.70
2018-07-23T12:42:56.696Z,26.07
2018-07-23T12:43:56.610Z,25.62
2018-07-23T12:44:56.624Z,25.75
2018-07-23T12:45:56.648Z,25.73
2018-07-23T12:46:56.670Z,25.75
2018-07-23T12:47:56.684Z,25.83
2018-07-23T12:48:56.838Z,25.83
2018-07-23T12:49:56.732Z,25.97
2018-07-23T12:50:56.751Z,26.17
2018-07-23T12:51:56.778Z,25.88
2018-07-23T12:52:56.792Z,26.07